Time;durP1;ratioP1;P1;durP2;ratioP2;P2;SDS_P1;SDS_P2;PMS_P1;PMS_P2;Temp;Humidity;BMP_temperature;BMP_pressure;BME280_temperature;BME280_humidity;BME280_pressure;Samples;Min_cycle;Max_cycle;Signal;HPM_P1;HPM_P2
2024/02/09 00:01:38;;;;;;;8.25;6.50;;;;;;;4.69;100.00;96199.94;1224198;75;2915789;-64
2024/02/09 00:04:14;;;;;;;7.65;6.85;;;;;;;4.66;100.00;96198.13;1225077;75;2920729;-63
2024/02/09 00:06:47;;;;;;;10.55;8.75;;;;;;;4.62;100.00;96201.06;1224409;75;2918717;-65
2024/02/09 00:09:19;;;;;;;12.45;9.70;;;;;;;4.61;100.00;96199.56;1224285;75;2921482;-62
2024/02/09 00:11:52;;;;;;;10.75;7.85;;;;;;;4.84;100.00;96189.78;1223342;75;2918046;-61
2024/02/09 00:14:28;;;;;;;8.40;6.80;;;;;;;4.88;100.00;96184.91;1224743;75;2918139;-62
2024/02/09 00:17:01;;;;;;;7.90;6.15;;;;;;;4.88;100.00;96186.84;1224816;75;2912588;-65
2024/02/09 00:19:34;;;;;;;8.95;7.30;;;;;;;4.74;100.00;96185.69;1225041;75;2913383;-64
2024/02/09 00:22:07;;;;;;;9.05;7.45;;;;;;;4.93;100.00;96183.47;1223842;75;2915130;-62
2024/02/09 00:24:42;;;;;;;10.35;8.40;;;;;;;4.83;100.00;96182.09;1223564;75;2919081;-63
2024/02/09 00:27:15;;;;;;;7.90;6.85;;;;;;;4.93;100.00;96193.56;1224229;75;2920780;-62
2024/02/09 00:29:50;;;;;;;14.45;10.50;;;;;;;4.68;100.00;96185.59;1224518;75;2925204;-62
2024/02/09 00:32:23;;;;;;;12.75;10.50;;;;;;;4.85;100.00;96201.34;1223981;75;2925130;-63
2024/02/09 00:34:56;;;;;;;10.60;8.90;;;;;;;4.98;100.00;96195.59;1224487;75;2914383;-64
2024/02/09 00:37:29;;;;;;;12.85;10.35;;;;;;;4.75;100.00;96189.88;1223163;75;2923847;-63
2024/02/09 00:40:04;;;;;;;13.00;8.70;;;;;;;4.84;100.00;96197.16;1223303;75;2916507;-62
2024/02/09 00:42:38;;;;;;;19.75;14.10;;;;;;;4.53;100.00;96201.16;1223230;75;2922072;-64
2024/02/09 00:45:14;;;;;;;16.30;11.65;;;;;;;4.86;100.00;96194.72;1224405;75;2923393;-63
2024/02/09 00:47:47;;;;;;;12.20;9.60;;;;;;;4.97;100.00;96194.13;1224847;75;2918669;-63
2024/02/09 00:50:20;;;;;;;11.75;9.95;;;;;;;4.81;100.00;96185.31;1224633;75;2920034;-63
2024/02/09 00:52:54;;;;;;;9.15;7.70;;;;;;;5.02;100.00;96188.75;1224385;75;2914991;-63
2024/02/09 00:55:29;;;;;;;8.50;7.55;;;;;;;5.06;100.00;96180.44;1225059;75;2914588;-63
2024/02/09 00:58:02;;;;;;;7.70;6.20;;;;;;;5.08;100.00;96195.00;1224760;75;2919127;-62
2024/02/09 01:00:40;;;;;;;8.60;6.45;;;;;;;4.98;100.00;96192.88;1225091;75;2912092;-63
2024/02/09 01:03:15;;;;;;;10.00;8.00;;;;;;;4.84;100.00;96187.06;1224334;75;2921825;-63
2024/02/09 01:05:47;;;;;;;11.05;8.65;;;;;;;4.82;100.00;96183.34;1225285;75;2913587;-63
2024/02/09 01:08:21;;;;;;;11.05;8.65;;;;;;;4.87;100.00;96177.97;1224510;75;2923575;-64
2024/02/09 01:10:53;;;;;;;13.50;10.90;;;;;;;4.71;100.00;96183.91;1225399;75;2914090;-62
2024/02/09 02:46:53;;;;;;;5.80;4.50;;;;;;;5.21;100.00;96088.13;1225434;75;2798868;-61
2024/02/09 03:06:04;;;;;;;6.45;5.45;;;;;;;5.36;100.00;96077.16;1225543;75;2913717;-62
2024/02/09 03:08:36;;;;;;;8.90;7.95;;;;;;;5.36;100.00;96072.47;1224669;75;2916476;-59
2024/02/09 03:11:13;;;;;;;7.15;6.00;;;;;;;5.61;100.00;96053.94;1224151;75;2918274;-61
2024/02/09 03:13:49;;;;;;;6.60;5.25;;;;;;;5.61;100.00;96045.81;1224851;75;2912418;-67
2024/02/09 03:16:22;;;;;;;6.70;4.75;;;;;;;5.55;100.00;96048.47;1224145;75;2921813;-64
2024/02/09 03:18:55;;;;;;;5.60;4.30;;;;;;;5.53;100.00;96050.91;1225151;75;2915213;-59
2024/02/09 03:21:35;;;;;;;5.40;4.40;;;;;;;5.49;100.00;96062.00;1224439;75;2914452;-61
2024/02/09 03:24:08;;;;;;;6.35;4.70;;;;;;;5.50;100.00;96055.31;1225001;75;2924195;-63
2024/02/09 03:26:44;;;;;;;7.45;5.50;;;;;;;5.47;100.00;96048.16;1222813;67;2914937;-64
2024/02/09 03:29:17;;;;;;;8.85;6.70;;;;;;;5.39;100.00;96046.34;1224742;75;2914077;-62
2024/02/09 03:31:50;;;;;;;7.30;5.70;;;;;;;5.44;100.00;96043.69;1223691;75;2912819;-64
2024/02/09 03:34:22;;;;;;;6.55;5.75;;;;;;;5.30;100.00;96041.84;1224082;75;2917575;-61
2024/02/09 03:36:56;;;;;;;6.85;5.30;;;;;;;5.43;100.00;96044.16;1225236;75;2920947;-61
2024/02/09 03:39:29;;;;;;;6.35;5.20;;;;;;;5.32;100.00;96042.84;1222139;75;2916524;-65
2024/02/09 03:42:05;;;;;;;7.20;5.80;;;;;;;5.34;100.00;96036.97;1220600;75;2917768;-62
2024/02/09 03:44:38;;;;;;;7.30;5.90;;;;;;;5.33;100.00;96030.03;1224491;75;2913635;-61
2024/02/09 03:47:10;;;;;;;8.25;6.35;;;;;;;5.27;100.00;96032.69;1224158;75;2927626;-64
2024/02/09 03:49:43;;;;;;;6.90;5.75;;;;;;;5.44;100.00;96027.41;1224398;75;2917577;-65
2024/02/09 03:52:18;;;;;;;8.90;6.15;;;;;;;5.50;100.00;96030.91;1224484;75;2918402;-62
2024/02/09 03:54:51;;;;;;;7.35;5.75;;;;;;;5.40;100.00;96026.13;1224059;75;2917033;-62
2024/02/09 03:57:29;;;;;;;7.15;5.95;;;;;;;5.25;100.00;96027.00;1224352;83;2922358;-63
2024/02/09 04:00:02;;;;;;;9.85;7.65;;;;;;;5.01;100.00;96024.56;1224068;75;2931265;-63
2024/02/09 04:02:35;;;;;;;9.95;7.40;;;;;;;5.01;100.00;96026.53;1223084;75;2924814;-62
2024/02/09 04:05:08;;;;;;;9.05;7.55;;;;;;;5.24;100.00;96030.94;1224241;75;2926828;-65
2024/02/09 04:07:41;;;;;;;9.80;7.60;;;;;;;5.41;100.00;96019.47;1223590;75;2917025;-62
2024/02/09 04:10:14;;;;;;;7.50;6.35;;;;;;;5.62;100.00;96017.44;1223660;75;2920910;-63
2024/02/09 04:12:50;;;;;;;9.85;6.70;;;;;;;5.37;100.00;96016.25;1224019;75;2925769;-62
2024/02/09 04:15:24;;;;;;;7.05;5.60;;;;;;;5.51;100.00;96007.97;1223584;75;2919650;-63
2024/02/09 04:17:57;;;;;;;5.85;4.95;;;;;;;5.55;100.00;96005.03;1224724;75;2919108;-63
2024/02/09 04:20:32;;;;;;;4.80;3.85;;;;;;;5.66;100.00;96001.66;1224241;75;2923975;-60
2024/02/09 04:23:05;;;;;;;5.70;4.80;;;;;;;5.60;100.00;95995.44;1223871;75;2914221;-61
2024/02/09 04:25:38;;;;;;;5.70;4.75;;;;;;;5.61;100.00;95992.25;1224455;75;2916398;-62
2024/02/09 04:28:17;;;;;;;11.90;7.85;;;;;;;5.16;100.00;95999.28;1224099;75;2924883;-63
2024/02/09 04:30:49;;;;;;;11.95;8.90;;;;;;;5.39;100.00;95994.78;1224070;75;2923875;-64
2024/02/09 04:33:22;;;;;;;9.75;7.65;;;;;;;5.68;100.00;95978.25;1223345;75;2920291;-63
2024/02/09 04:35:56;;;;;;;7.20;6.20;;;;;;;5.79;100.00;95985.69;1224810;75;2913517;-62
2024/02/09 04:38:30;;;;;;;6.70;5.60;;;;;;;5.81;100.00;95985.97;1223417;75;2922894;-63
2024/02/09 04:41:03;;;;;;;7.05;5.70;;;;;;;5.87;100.00;95981.31;1223061;75;2917342;-61
2024/02/09 04:43:38;;;;;;;6.20;4.45;;;;;;;5.96;100.00;95981.16;1224463;75;2923711;-61
2024/02/09 04:46:11;;;;;;;5.45;4.85;;;;;;;6.06;100.00;95968.13;1224222;75;2920899;-64
2024/02/09 04:48:44;;;;;;;5.20;4.10;;;;;;;5.96;100.00;95980.41;1224529;75;2916875;-61
2024/02/09 04:51:17;;;;;;;9.05;6.30;;;;;;;5.75;100.00;95977.78;1223087;75;2920944;-64
2024/02/09 04:53:50;;;;;;;9.35;6.90;;;;;;;5.80;100.00;95987.22;1223688;75;2929704;-62
2024/02/09 04:56:32;;;;;;;5.90;4.85;;;;;;;6.04;100.00;95978.72;1223923;75;2918575;-63
2024/02/09 04:59:09;;;;;;;5.40;4.40;;;;;;;6.02;100.00;95975.00;1224127;75;2921868;-64
2024/02/09 05:01:43;;;;;;;5.05;3.95;;;;;;;5.98;100.00;95970.53;1222620;75;2922559;-63
2024/02/09 05:04:17;;;;;;;4.65;3.40;;;;;;;6.09;100.00;95972.56;1222922;75;2921396;-62
2024/02/09 05:06:50;;;;;;;3.90;3.10;;;;;;;6.14;100.00;95955.56;1223230;75;2919023;-65
2024/02/09 05:09:23;;;;;;;4.10;3.40;;;;;;;6.14;100.00;95947.41;1223548;75;2929408;-64
2024/02/09 05:11:56;;;;;;;4.20;3.25;;;;;;;6.11;100.00;95953.81;1222720;75;2920806;-65
2024/02/09 05:14:32;;;;;;;8.05;6.00;;;;;;;6.04;100.00;95956.22;1223817;75;2918846;-63
2024/02/09 05:17:05;;;;;;;6.60;5.80;;;;;;;6.12;100.00;95951.84;1223463;75;2913373;-65
2024/02/09 05:19:38;;;;;;;8.00;6.50;;;;;;;5.98;100.00;95946.09;1223606;75;2925531;-63
2024/02/09 05:22:10;;;;;;;8.65;6.45;;;;;;;5.95;100.00;95946.31;1223630;75;2925564;-60
2024/02/09 05:24:45;;;;;;;10.45;5.95;;;;;;;5.90;100.00;95936.91;1224262;75;2891566;-61
2024/02/09 05:27:20;;;;;;;7.95;6.25;;;;;;;5.90;100.00;95945.03;1223982;75;2913689;-62
2024/02/09 05:29:56;;;;;;;6.20;5.25;;;;;;;6.09;100.00;95942.69;1224219;75;2917506;-63
2024/02/09 05:32:30;;;;;;;6.20;4.65;;;;;;;6.12;100.00;95940.97;1223246;75;2920967;-61
2024/02/09 05:35:03;;;;;;;8.90;6.70;;;;;;;6.00;100.00;95942.91;1223603;75;2919221;-64
2024/02/09 05:37:35;;;;;;;8.85;7.05;;;;;;;6.04;100.00;95948.09;1223641;75;2923611;-61
2024/02/09 05:40:11;;;;;;;7.45;5.90;;;;;;;6.01;100.00;95954.50;1224038;75;2932346;-66
2024/02/09 05:42:44;;;;;;;9.05;7.15;;;;;;;6.10;100.00;95941.44;1223310;75;2915594;-64
2024/02/09 05:45:20;;;;;;;10.25;7.55;;;;;;;6.19;100.00;95937.78;1224523;75;2920687;-63
2024/02/09 05:47:52;;;;;;;8.05;5.85;;;;;;;6.09;100.00;95934.53;1223869;75;2921390;-61
2024/02/09 05:50:26;;;;;;;5.50;4.75;;;;;;;6.18;100.00;95933.56;1223863;75;2921901;-64
2024/02/09 05:52:58;;;;;;;8.05;5.25;;;;;;;6.14;100.00;95936.53;1223357;75;2923822;-64
2024/02/09 05:55:32;;;;;;;7.65;4.80;;;;;;;6.34;100.00;95924.00;1224051;75;2917833;-63
2024/02/09 05:58:05;;;;;;;7.90;5.00;;;;;;;6.26;100.00;95923.00;1224468;75;2918710;-62
2024/02/09 06:00:41;;;;;;;7.95;5.05;;;;;;;6.31;100.00;95914.13;1222936;75;2926338;-63
2024/02/09 06:03:14;;;;;;;6.15;4.60;;;;;;;6.25;100.00;95922.25;1223550;75;2922630;-64
2024/02/09 06:05:48;;;;;;;5.80;4.55;;;;;;;6.35;100.00;95926.25;1224304;75;2920658;-63
2024/02/09 06:08:20;;;;;;;5.10;3.95;;;;;;;6.37;100.00;95923.03;1224466;75;2923319;-65
2024/02/09 06:10:53;;;;;;;3.75;3.25;;;;;;;6.33;100.00;95926.00;1225119;75;2913844;-63
2024/02/09 06:13:27;;;;;;;7.20;5.15;;;;;;;6.24;100.00;95930.91;1224259;75;2917430;-62
2024/02/09 06:16:03;;;;;;;6.30;5.35;;;;;;;6.36;100.00;95933.16;1224233;75;2931258;-65
2024/02/09 06:18:36;;;;;;;11.55;7.95;;;;;;;6.33;100.00;95931.41;1224009;75;2917109;-61
2024/02/09 06:21:09;;;;;;;9.75;7.25;;;;;;;6.37;100.00;95923.78;1222158;75;2923296;-63
2024/02/09 06:23:44;;;;;;;7.95;6.50;;;;;;;6.50;100.00;95914.44;1223882;75;2929325;-63
2024/02/09 06:26:23;;;;;;;9.25;6.40;;;;;;;6.58;100.00;95923.56;1224092;75;2916470;-65
2024/02/09 06:28:56;;;;;;;9.10;6.90;;;;;;;6.76;100.00;95931.28;1223169;75;2924582;-61
2024/02/09 06:31:31;;;;;;;6.90;5.55;;;;;;;6.77;100.00;95938.19;1222447;83;2922096;-60
2024/02/09 06:34:05;;;;;;;10.85;6.30;;;;;;;6.40;100.00;95936.38;1224640;75;2919426;-63
2024/02/09 06:36:39;;;;;;;9.90;7.75;;;;;;;6.61;100.00;95941.63;1224105;75;2920180;-65
2024/02/09 06:39:11;;;;;;;9.70;7.75;;;;;;;6.86;100.00;95950.09;1223243;75;2935952;-60
2024/02/09 06:41:44;;;;;;;9.60;6.90;;;;;;;7.02;100.00;95943.91;1220956;75;3044277;-62
2024/02/09 06:44:18;;;;;;;5.65;5.05;;;;;;;7.05;100.00;95945.66;1224139;75;2919020;-63
2024/02/09 06:46:54;;;;;;;7.05;5.60;;;;;;;7.13;100.00;95948.63;1224266;75;2922102;-62
2024/02/09 06:49:28;;;;;;;10.90;6.45;;;;;;;7.16;100.00;95961.97;1224006;75;2921319;-64
2024/02/09 06:52:01;;;;;;;8.10;5.60;;;;;;;7.22;100.00;95954.56;1224129;75;2924203;-62
2024/02/09 06:54:34;;;;;;;8.05;6.35;;;;;;;7.24;100.00;95962.25;1223333;75;2922740;-65
2024/02/09 06:57:07;;;;;;;6.55;5.00;;;;;;;7.36;100.00;95960.25;1224196;75;2939010;-63
2024/02/09 06:59:45;;;;;;;6.55;4.60;;;;;;;7.24;100.00;95962.25;1224247;75;2925426;-63
2024/02/09 07:02:20;;;;;;;5.40;4.00;;;;;;;7.35;100.00;95953.34;1222883;75;2924365;-65
2024/02/09 07:05:00;;;;;;;3.90;3.15;;;;;;;7.40;100.00;95941.69;1225345;75;2921611;-66
2024/02/09 07:07:37;;;;;;;6.45;3.60;;;;;;;7.27;100.00;95944.19;1224230;75;2919147;-64
2024/02/09 07:10:11;;;;;;;4.80;3.45;;;;;;;7.28;100.00;95942.94;1223113;75;2924617;-66
2024/02/09 07:12:44;;;;;;;5.90;4.45;;;;;;;7.27;100.00;95936.75;1223133;75;2919649;-64
2024/02/09 07:15:17;;;;;;;6.15;4.45;;;;;;;7.88;100.00;95949.53;1223171;75;2934545;-64
2024/02/09 07:17:56;;;;;;;5.00;3.25;;;;;;;8.54;100.00;95943.66;1223792;75;2928858;-61
2024/02/09 07:20:28;;;;;;;3.55;1.85;;;;;;;9.22;100.00;95948.69;1223092;75;2927971;-64
2024/02/09 07:23:04;;;;;;;3.80;2.10;;;;;;;9.57;100.00;95945.91;1223206;75;2926282;-64
2024/02/09 07:25:37;;;;;;;3.75;2.10;;;;;;;9.60;100.00;95936.66;1222933;75;2919857;-65
2024/02/09 07:28:10;;;;;;;3.75;1.60;;;;;;;9.84;100.00;95945.38;1223363;75;2932816;-63
2024/02/09 07:30:44;;;;;;;2.70;1.80;;;;;;;9.94;99.72;95943.81;1223534;75;2924953;-64
2024/02/09 07:33:21;;;;;;;2.75;1.80;;;;;;;10.03;97.43;95949.66;1222946;75;2922262;-62
2024/02/09 07:35:55;;;;;;;3.80;2.45;;;;;;;10.16;95.97;95951.75;1222929;75;2926516;-62
2024/02/09 07:38:28;;;;;;;2.35;1.60;;;;;;;10.20;95.62;95946.75;1224135;75;2921293;-66
2024/02/09 07:41:01;;;;;;;3.05;1.50;;;;;;;10.20;95.52;95941.28;1223468;75;2928239;-64
2024/02/09 07:43:35;;;;;;;2.05;1.45;;;;;;;10.30;93.50;95935.47;1223644;75;2921021;-63
2024/02/09 07:46:08;;;;;;;2.60;1.40;;;;;;;10.47;91.88;95938.75;1223392;75;2927142;-65
2024/02/09 07:48:44;;;;;;;2.30;1.50;;;;;;;10.51;91.19;95947.41;1223336;75;2923750;-63
2024/02/09 07:51:20;;;;;;;2.75;1.35;;;;;;;10.56;90.28;95940.34;1221578;75;2934355;-65
2024/02/09 07:53:55;;;;;;;3.85;1.20;;;;;;;10.63;89.84;95928.81;1223070;75;2927361;-63
2024/02/09 07:56:28;;;;;;;2.65;1.70;;;;;;;10.72;88.36;95933.94;1223264;75;2925361;-63
2024/02/09 07:59:01;;;;;;;3.00;1.75;;;;;;;10.72;88.73;95928.44;1223724;75;2926750;-61
2024/02/09 08:01:35;;;;;;;4.45;1.80;;;;;;;10.78;88.93;95931.13;1223181;75;2926138;-64
2024/02/09 08:04:11;;;;;;;4.95;1.50;;;;;;;10.82;88.13;95937.03;1223527;75;2926041;-63
2024/02/09 08:06:44;;;;;;;2.75;1.30;;;;;;;10.82;87.77;95940.53;1224815;75;2924580;-65
2024/02/09 08:09:17;;;;;;;4.05;1.40;;;;;;;10.91;86.80;95949.59;1223812;75;2927287;-64
2024/02/09 08:11:50;;;;;;;1.75;1.10;;;;;;;10.97;87.15;95950.28;1223126;75;2929587;-65
2024/02/09 08:14:23;;;;;;;4.05;1.55;;;;;;;11.04;85.68;95941.44;1222613;75;2922846;-63
2024/02/09 08:16:55;;;;;;;3.95;1.80;;;;;;;11.04;86.33;95942.19;1223779;75;2926925;-63
2024/02/09 08:19:32;;;;;;;1.55;1.30;;;;;;;11.11;85.79;95938.09;1223492;75;2932942;-63
2024/02/09 08:22:06;;;;;;;4.20;1.30;;;;;;;11.17;85.03;95925.06;1223096;75;2934323;-63
2024/02/09 08:24:39;;;;;;;6.70;1.30;;;;;;;11.11;85.28;95915.44;1222592;75;2936888;-60
2024/02/09 08:27:12;;;;;;;4.95;1.20;;;;;;;11.23;83.83;95912.03;1223011;75;2926780;-64
2024/02/09 08:29:45;;;;;;;6.30;1.25;;;;;;;11.29;83.08;95909.19;1224797;75;2929252;-67
2024/02/09 08:32:18;;;;;;;5.00;1.40;;;;;;;11.29;82.69;95900.97;1223297;75;2925845;-64
2024/02/09 08:34:54;;;;;;;3.15;1.30;;;;;;;11.29;83.64;95904.44;1222546;75;2925680;-64
2024/02/09 08:37:27;;;;;;;5.35;1.95;;;;;;;11.34;82.73;95902.88;1223439;75;2932448;-64
2024/02/09 08:40:00;;;;;;;3.60;1.40;;;;;;;11.41;82.48;95891.31;1223076;75;2942041;-66
2024/02/09 08:42:33;;;;;;;2.95;1.65;;;;;;;11.51;82.00;95892.38;1223146;75;2932758;-62
2024/02/09 08:45:07;;;;;;;7.90;3.80;;;;;;;11.63;82.15;95895.66;1224177;75;2919605;-62
2024/02/09 08:47:39;;;;;;;2.65;1.75;;;;;;;11.71;81.53;95898.50;1223004;75;2927649;-67
2024/02/09 08:50:15;;;;;;;3.55;1.55;;;;;;;11.79;81.22;95899.38;1223098;75;2920797;-62
2024/02/09 08:52:48;;;;;;;3.00;1.50;;;;;;;11.81;80.53;95894.09;1223614;75;2917721;-64
2024/02/09 08:55:21;;;;;;;2.10;1.10;;;;;;;11.99;80.67;95911.00;1223129;75;2935982;-68
2024/02/09 08:57:54;;;;;;;2.60;1.10;;;;;;;11.88;80.87;95912.69;1224539;75;2922078;-65
2024/02/09 09:00:27;;;;;;;1.30;0.95;;;;;;;11.90;80.52;95912.88;1223444;75;2923530;-59
2024/02/09 09:03:00;;;;;;;2.35;1.20;;;;;;;11.92;80.49;95917.84;1222202;75;2928654;-65
2024/02/09 09:05:35;;;;;;;1.85;1.20;;;;;;;12.03;80.22;95914.91;1224043;75;2921979;-62
2024/02/09 09:08:09;;;;;;;1.95;1.60;;;;;;;12.02;80.67;95910.66;1222853;75;2935190;-61
2024/02/09 09:10:42;;;;;;;2.65;1.45;;;;;;;12.05;80.00;95920.59;1223419;75;2925351;-67
2024/02/09 09:13:15;;;;;;;1.40;0.80;;;;;;;12.11;79.76;95915.00;1222959;75;2925277;-65
2024/02/09 09:15:48;;;;;;;2.80;1.20;;;;;;;12.39;78.60;95911.69;1223374;75;2930991;-61
2024/02/09 09:18:21;;;;;;;2.60;1.20;;;;;;;12.64;77.22;95908.69;1223053;75;2933463;-63
2024/02/09 09:20:56;;;;;;;3.50;1.30;;;;;;;12.73;76.56;95910.97;1223834;75;2924190;-63
2024/02/09 09:23:31;;;;;;;2.90;1.30;;;;;;;13.05;74.32;95904.53;1222452;75;2928225;-62
2024/02/09 09:26:03;;;;;;;2.90;1.25;;;;;;;13.06;74.32;95906.75;1224054;75;2925982;-64
2024/02/09 09:28:36;;;;;;;2.15;1.20;;;;;;;12.96;74.24;95909.22;1224128;75;2922181;-63
2024/02/09 09:31:12;;;;;;;2.90;1.00;;;;;;;13.08;74.19;95900.69;1222486;75;2931223;-63
2024/02/09 09:33:45;;;;;;;2.85;1.20;;;;;;;13.01;73.59;95891.09;1224591;75;2921054;-64
2024/02/09 09:36:21;;;;;;;2.75;1.25;;;;;;;13.30;73.65;95894.72;1223835;75;2926751;-65
2024/02/09 09:38:53;;;;;;;2.80;1.30;;;;;;;13.61;71.67;95895.69;1224132;75;2924884;-66
2024/02/09 09:41:27;;;;;;;2.75;1.20;;;;;;;13.74;71.64;95896.88;1222471;75;2920840;-63
2024/02/09 09:43:59;;;;;;;2.45;1.05;;;;;;;13.54;71.35;95901.09;1223643;75;2926962;-64
2024/02/09 09:46:34;;;;;;;5.75;1.20;;;;;;;13.43;72.19;95907.63;1222858;75;2929005;-62
2024/02/09 09:49:08;;;;;;;2.70;1.70;;;;;;;13.68;71.75;95907.25;1223416;75;2915875;-67
2024/02/09 09:51:50;;;;;;;2.35;1.20;;;;;;;13.42;71.83;95903.41;1221771;75;2966671;-65
2024/02/09 09:54:25;;;;;;;2.95;1.25;;;;;;;13.40;72.08;95892.22;1223011;75;2934091;-65
2024/02/09 09:56:59;;;;;;;3.80;1.10;;;;;;;13.47;71.38;95897.03;1223502;75;2932444;-64
2024/02/09 09:59:32;;;;;;;3.40;1.00;;;;;;;13.49;70.77;95899.97;1223736;75;2928664;-63
2024/02/09 10:02:05;;;;;;;5.15;1.35;;;;;;;13.86;70.61;95900.78;1224040;75;2925790;-63
2024/02/09 10:04:39;;;;;;;3.80;1.10;;;;;;;13.80;70.07;95909.16;1223122;75;2924102;-63
2024/02/09 10:07:19;;;;;;;4.55;1.05;;;;;;;13.79;69.97;95902.22;1224116;75;2923927;-60
2024/02/09 10:09:53;;;;;;;3.90;1.40;;;;;;;13.80;69.86;95902.94;1224028;75;2927000;-64
2024/02/09 10:12:28;;;;;;;2.05;1.10;;;;;;;13.91;69.67;95896.41;1223529;75;2920833;-61
2024/02/09 10:15:01;;;;;;;3.60;1.20;;;;;;;13.98;69.10;95899.22;1223076;67;2931841;-67
2024/02/09 10:17:35;;;;;;;2.55;1.45;;;;;;;13.84;69.25;95889.59;1223485;75;2931141;-63
2024/02/09 10:20:12;;;;;;;3.30;1.20;;;;;;;14.17;68.79;95884.47;1223055;75;2927377;-62
2024/02/09 10:22:49;;;;;;;2.80;1.30;;;;;;;14.64;67.28;95877.84;1223156;75;2923168;-65
2024/02/09 10:25:22;;;;;;;2.70;1.10;;;;;;;14.65;67.29;95884.84;1222430;75;2941195;-62
2024/02/09 10:27:55;;;;;;;2.20;1.10;;;;;;;14.26;67.16;95873.69;1223235;75;2926324;-64
2024/02/09 10:30:29;;;;;;;2.25;0.80;;;;;;;14.31;67.02;95876.78;1223355;75;2942002;-64
2024/02/09 10:33:02;;;;;;;3.15;0.80;;;;;;;14.65;66.55;95879.34;1223138;75;2919965;-65
2024/02/09 10:35:34;;;;;;;2.65;1.20;;;;;;;14.22;67.78;95883.56;1223704;75;2926696;-64
2024/02/09 10:38:10;;;;;;;1.90;1.00;;;;;;;14.40;67.78;95873.53;1223242;75;2934880;-60
2024/02/09 10:40:43;;;;;;;2.05;1.15;;;;;;;14.17;67.95;95881.72;1222780;75;2927987;-65
2024/02/09 10:43:19;;;;;;;1.85;1.05;;;;;;;14.41;67.72;95870.25;1222452;75;2923005;-63
2024/02/09 10:45:53;;;;;;;3.30;1.15;;;;;;;14.16;67.53;95872.69;1221376;75;2931108;-61
2024/02/09 10:48:37;;;;;;;3.10;1.00;;;;;;;14.32;67.90;95864.53;1223612;75;2921295;-62
2024/02/09 10:51:10;;;;;;;2.75;1.10;;;;;;;14.35;67.76;95861.41;1221501;75;2924699;-63
2024/02/09 10:53:59;;;;;;;4.40;1.10;;;;;;;14.19;67.56;95859.84;1223313;75;2917588;-66
2024/02/09 10:56:33;;;;;;;1.50;0.90;;;;;;;14.59;66.64;95853.97;1221564;75;2923498;-63
2024/02/09 10:59:08;;;;;;;2.55;1.30;;;;;;;14.40;67.07;95852.25;1223958;75;2926083;-64
2024/02/09 11:01:41;;;;;;;1.15;0.90;;;;;;;14.45;66.88;95856.09;1222954;75;2926318;-64
2024/02/09 11:04:14;;;;;;;2.05;0.90;;;;;;;14.39;67.62;95852.81;1224037;75;2919580;-62
2024/02/09 11:06:48;;;;;;;4.70;1.00;;;;;;;14.37;66.98;95849.84;1223251;75;2920706;-62
2024/02/09 11:09:24;;;;;;;1.95;1.20;;;;;;;14.52;66.61;95854.66;1223080;75;2926605;-64
2024/02/09 11:11:57;;;;;;;2.25;1.30;;;;;;;14.53;66.70;95840.38;1221863;75;2923766;-59
2024/02/09 11:14:34;;;;;;;4.95;1.20;;;;;;;14.72;66.87;95840.06;1223005;75;2950963;-62
2024/02/09 11:17:09;;;;;;;2.55;1.30;;;;;;;14.66;66.44;95834.72;1224459;75;2919601;-62
2024/02/09 11:19:44;;;;;;;1.25;0.95;;;;;;;14.66;66.16;95823.69;1222820;75;2929491;-63
2024/02/09 11:22:17;;;;;;;3.15;1.20;;;;;;;14.38;66.87;95827.28;1222915;75;2922343;-64
2024/02/09 11:24:53;;;;;;;4.40;1.70;;;;;;;14.23;67.34;95824.47;1222445;75;2931432;-61
2024/02/09 11:27:34;;;;;;;7.15;2.25;;;;;;;14.45;67.34;95834.81;1223656;75;2926838;-65
2024/02/09 11:30:08;;;;;;;2.65;1.10;;;;;;;14.31;67.37;95835.50;1223077;75;2923407;-64
2024/02/09 11:32:42;;;;;;;3.00;1.40;;;;;;;14.25;67.51;95833.66;1222151;75;2931730;-64
2024/02/09 11:35:16;;;;;;;2.55;1.10;;;;;;;14.12;67.37;95831.06;1221463;75;2917671;-65
2024/02/09 11:37:49;;;;;;;1.25;0.85;;;;;;;14.23;67.49;95836.22;1222399;75;2953944;-63
2024/02/09 11:40:25;;;;;;;1.85;0.85;;;;;;;14.19;67.58;95829.59;1222812;75;2914163;-64
2024/02/09 11:42:57;;;;;;;2.20;1.00;;;;;;;14.19;68.00;95827.59;1222538;75;2923783;-63
2024/02/09 11:45:31;;;;;;;2.95;1.00;;;;;;;14.17;67.37;95823.91;1223059;75;2926047;-67
2024/02/09 11:48:05;;;;;;;0.95;0.70;;;;;;;14.07;68.16;95824.44;1223148;75;2928067;-64
2024/02/09 11:50:38;;;;;;;2.55;0.90;;;;;;;13.88;68.14;95826.72;1223779;75;2921511;-63
2024/02/09 11:53:12;;;;;;;2.00;1.00;;;;;;;13.94;68.73;95826.56;1222400;75;2935363;-67
2024/02/09 11:55:47;;;;;;;7.20;1.45;;;;;;;14.01;68.44;95817.59;1223526;75;2921746;-63
2024/02/09 11:58:20;;;;;;;14.85;1.85;;;;;;;13.89;68.73;95814.44;1222872;75;2945559;-64
2024/02/09 12:00:53;;;;;;;9.35;1.70;;;;;;;13.91;68.90;95813.91;1224686;75;2918182;-64
2024/02/09 12:03:27;;;;;;;7.75;2.00;;;;;;;13.90;68.11;95810.38;1223710;75;2926585;-63
2024/02/09 12:06:05;;;;;;;1.85;1.20;;;;;;;14.04;68.30;95800.00;1222563;75;2927446;-63
2024/02/09 12:08:38;;;;;;;2.00;0.90;;;;;;;13.93;68.85;95805.84;1223626;75;2925555;-63
2024/02/09 12:11:14;;;;;;;1.60;1.00;;;;;;;14.03;68.59;95787.53;1222694;75;2923895;-63
2024/02/09 12:13:47;;;;;;;1.60;0.90;;;;;;;13.98;67.80;95799.44;1223045;75;2916772;-63
2024/02/09 12:16:21;;;;;;;1.85;0.90;;;;;;;13.93;67.89;95794.84;1222303;75;2926779;-66
2024/02/09 12:18:58;;;;;;;2.30;0.80;;;;;;;13.89;68.31;95789.69;1223834;75;2889143;-63
2024/02/09 12:21:32;;;;;;;3.30;0.90;;;;;;;14.02;67.58;95784.06;1222452;75;2923857;-61
2024/02/09 12:24:09;;;;;;;2.65;1.00;;;;;;;14.13;67.39;95793.25;1223509;75;2929417;-69
2024/02/09 12:26:44;;;;;;;3.10;0.90;;;;;;;14.13;67.21;95780.22;1223178;75;2920296;-63
2024/02/09 12:29:17;;;;;;;2.40;1.00;;;;;;;13.99;67.44;95781.66;1222870;75;2929537;-64
2024/02/09 12:31:51;;;;;;;1.70;0.90;;;;;;;14.30;66.74;95782.47;1222083;75;2927843;-64
2024/02/09 12:34:24;;;;;;;1.70;1.00;;;;;;;14.28;66.39;95777.50;1223513;75;2919889;-63
2024/02/09 12:37:01;;;;;;;2.40;0.75;;;;;;;14.38;66.70;95788.75;1223577;75;2917827;-63
2024/02/09 12:39:36;;;;;;;1.35;0.90;;;;;;;14.30;65.98;95785.22;1223229;75;2917151;-63
2024/02/09 12:42:12;;;;;;;1.80;1.20;;;;;;;14.48;66.29;95786.22;1221054;75;2925067;-65
2024/02/09 12:44:49;;;;;;;3.25;0.95;;;;;;;14.62;65.44;95778.53;1222338;75;2938127;-65
2024/02/09 12:47:22;;;;;;;1.70;1.10;;;;;;;14.65;65.70;95777.44;1221796;75;2962993;-66
2024/02/09 12:49:56;;;;;;;2.70;0.95;;;;;;;14.85;64.91;95771.03;1223479;75;2927756;-67
2024/02/09 12:52:29;;;;;;;1.80;0.90;;;;;;;15.05;64.23;95768.63;1222228;75;2921898;-63
2024/02/09 12:55:02;;;;;;;2.35;0.90;;;;;;;15.37;63.79;95770.81;1223386;75;2921929;-65
2024/02/09 12:57:39;;;;;;;4.30;0.75;;;;;;;15.18;64.02;95776.72;1224966;75;2919634;-64
2024/02/09 13:00:14;;;;;;;1.45;0.85;;;;;;;15.26;63.74;95780.19;1223225;75;2925520;-62
2024/02/09 13:02:48;;;;;;;1.80;1.35;;;;;;;15.16;63.49;95767.53;1222791;75;2927746;-62
2024/02/09 13:05:20;;;;;;;3.30;1.35;;;;;;;15.25;63.63;95777.97;1223963;75;2923107;-62
2024/02/09 13:07:53;;;;;;;1.75;0.70;;;;;;;15.17;63.40;95772.47;1224065;83;2954541;-62
2024/02/09 13:10:26;;;;;;;2.35;0.85;;;;;;;14.83;63.60;95772.88;1223974;75;2922395;-66
2024/02/09 13:13:06;;;;;;;2.80;0.85;;;;;;;14.78;64.13;95773.78;1223388;75;2930391;-67
2024/02/09 13:15:39;;;;;;;2.30;0.90;;;;;;;14.62;63.95;95767.50;1222948;75;2925231;-64
2024/02/09 13:18:13;;;;;;;3.25;1.10;;;;;;;14.48;64.49;95764.91;1221408;75;2930186;-64
2024/02/09 13:20:46;;;;;;;3.25;0.95;;;;;;;14.40;64.73;95774.44;1224364;75;2922145;-64
2024/02/09 13:23:21;;;;;;;1.45;0.50;;;;;;;14.52;64.60;95766.56;1222953;75;2931781;-61
2024/02/09 13:25:56;;;;;;;2.10;0.75;;;;;;;14.44;64.76;95761.78;1223620;75;2923146;-67
2024/02/09 13:28:32;;;;;;;7.25;0.80;;;;;;;14.30;64.94;95776.97;1210371;75;3893788;-64
2024/02/09 13:31:07;;;;;;;2.75;0.75;;;;;;;14.33;65.27;95764.13;1223543;75;2925187;-64
2024/02/09 13:33:40;;;;;;;1.85;0.80;;;;;;;14.35;65.00;95767.81;1223933;75;2923911;-66
2024/02/09 13:36:13;;;;;;;1.40;0.70;;;;;;;14.23;65.07;95761.19;1223734;75;2933397;-62
2024/02/09 13:38:46;;;;;;;1.75;0.75;;;;;;;14.15;65.82;95766.66;1224129;75;2921602;-66